sensor_id;sensor_type;location;lat;lon;timestamp;temperature;humidity
16955;DHT22;8594;52.052;8.354;2022-10-18T00:02:11;18.30;99.90
16955;DHT22;8594;52.052;8.354;2022-10-18T00:04:38;18.30;99.90
16955;DHT22;8594;52.052;8.354;2022-10-18T00:07:06;18.30;99.90
16955;DHT22;8594;52.052;8.354;2022-10-18T00:09:33;18.30;99.90
16955;DHT22;8594;52.052;8.354;2022-10-18T00:12:00;18.40;99.90
16955;DHT22;8594;52.052;8.354;2022-10-18T00:14:27;18.50;99.90
16955;DHT22;8594;52.052;8.354;2022-10-18T00:16:54;18.40;99.90
16955;DHT22;8594;52.052;8.354;2022-10-18T00:19:21;18.30;99.90
16955;DHT22;8594;52.052;8.354;2022-10-18T00:21:49;18.30;99.90
16955;DHT22;8594;52.052;8.354;2022-10-18T00:24:17;18.40;99.90
16955;DHT22;8594;52.052;8.354;2022-10-18T00:26:44;18.30;99.90
16955;DHT22;8594;52.052;8.354;2022-10-18T00:29:13;18.30;99.90
16955;DHT22;8594;52.052;8.354;2022-10-18T00:31:42;18.30;99.90
16955;DHT22;8594;52.052;8.354;2022-10-18T00:34:11;18.30;99.90
16955;DHT22;8594;52.052;8.354;2022-10-18T00:36:40;18.40;99.90
16955;DHT22;8594;52.052;8.354;2022-10-18T00:39:11;18.60;99.90
16955;DHT22;8594;52.052;8.354;2022-10-18T00:41:42;18.70;99.90
16955;DHT22;8594;52.052;8.354;2022-10-18T00:47:38;18.80;99.90
16955;DHT22;8594;52.052;8.354;2022-10-18T00:50:07;18.70;99.90
16955;DHT22;8594;52.052;8.354;2022-10-18T00:52:37;18.70;99.90
16955;DHT22;8594;52.052;8.354;2022-10-18T00:55:08;18.50;99.90
16955;DHT22;8594;52.052;8.354;2022-10-18T00:57:37;18.40;99.90
16955;DHT22;8594;52.052;8.354;2022-10-18T01:00:08;18.30;99.90
16955;DHT22;8594;52.052;8.354;2022-10-18T01:02:36;18.20;99.90
16955;DHT22;8594;52.052;8.354;2022-10-18T01:05:04;18.20;99.90
16955;DHT22;8594;52.052;8.354;2022-10-18T01:08:05;18.20;99.90
16955;DHT22;8594;52.052;8.354;2022-10-18T01:10:46;18.20;99.90
16955;DHT22;8594;52.052;8.354;2022-10-18T01:13:37;18.40;99.90
16955;DHT22;8594;52.052;8.354;2022-10-18T01:16:16;18.40;99.90
16955;DHT22;8594;52.052;8.354;2022-10-18T01:18:50;18.30;99.90
16955;DHT22;8594;52.052;8.354;2022-10-18T01:21:33;18.30;99.90
16955;DHT22;8594;52.052;8.354;2022-10-18T01:24:36;18.30;99.90
16955;DHT22;8594;52.052;8.354;2022-10-18T01:27:43;18.40;99.90
16955;DHT22;8594;52.052;8.354;2022-10-18T01:30:50;18.20;99.90
16955;DHT22;8594;52.052;8.354;2022-10-18T01:33:28;18.30;99.90
16955;DHT22;8594;52.052;8.354;2022-10-18T01:36:04;18.30;99.90
16955;DHT22;8594;52.052;8.354;2022-10-18T01:38:38;18.30;99.90
16955;DHT22;8594;52.052;8.354;2022-10-18T01:41:08;18.30;99.90
16955;DHT22;8594;52.052;8.354;2022-10-18T01:43:39;18.30;99.90
16955;DHT22;8594;52.052;8.354;2022-10-18T01:46:09;18.20;99.90
16955;DHT22;8594;52.052;8.354;2022-10-18T01:48:38;18.20;99.90
16955;DHT22;8594;52.052;8.354;2022-10-18T01:51:05;18.20;99.90
16955;DHT22;8594;52.052;8.354;2022-10-18T01:53:33;18.30;99.90
16955;DHT22;8594;52.052;8.354;2022-10-18T01:56:10;18.40;99.90
16955;DHT22;8594;52.052;8.354;2022-10-18T01:59:01;18.30;99.90
16955;DHT22;8594;52.052;8.354;2022-10-18T02:01:43;18.30;99.90
16955;DHT22;8594;52.052;8.354;2022-10-18T02:04:23;18.30;99.90
16955;DHT22;8594;52.052;8.354;2022-10-18T02:07:02;18.30;99.90
16955;DHT22;8594;52.052;8.354;2022-10-18T02:09:39;18.20;99.90
16955;DHT22;8594;52.052;8.354;2022-10-18T02:12:13;18.20;99.90
16955;DHT22;8594;52.052;8.354;2022-10-18T02:14:43;18.20;99.90
16955;DHT22;8594;52.052;8.354;2022-10-18T02:17:13;18.10;99.90
16955;DHT22;8594;52.052;8.354;2022-10-18T02:19:44;18.10;99.90
16955;DHT22;8594;52.052;8.354;2022-10-18T02:22:14;18.10;99.90
16955;DHT22;8594;52.052;8.354;2022-10-18T02:24:45;18.20;99.90
16955;DHT22;8594;52.052;8.354;2022-10-18T02:27:15;18.30;99.90
16955;DHT22;8594;52.052;8.354;2022-10-18T02:29:43;18.20;99.90
16955;DHT22;8594;52.052;8.354;2022-10-18T02:32:17;18.20;99.90
16955;DHT22;8594;52.052;8.354;2022-10-18T02:34:52;18.20;99.90
16955;DHT22;8594;52.052;8.354;2022-10-18T02:37:29;18.30;99.90
16955;DHT22;8594;52.052;8.354;2022-10-18T02:40:00;18.20;99.90
16955;DHT22;8594;52.052;8.354;2022-10-18T02:42:33;18.20;99.90
16955;DHT22;8594;52.052;8.354;2022-10-18T02:45:01;18.30;99.90
16955;DHT22;8594;52.052;8.354;2022-10-18T02:47:30;18.20;99.90
16955;DHT22;8594;52.052;8.354;2022-10-18T02:49:57;18.20;99.90
16955;DHT22;8594;52.052;8.354;2022-10-18T02:52:24;18.10;99.90
16955;DHT22;8594;52.052;8.354;2022-10-18T02:54:51;18.30;99.90
16955;DHT22;8594;52.052;8.354;2022-10-18T02:57:18;18.40;99.90
16955;DHT22;8594;52.052;8.354;2022-10-18T02:59:45;18.30;99.90
16955;DHT22;8594;52.052;8.354;2022-10-18T03:02:12;18.20;99.90
16955;DHT22;8594;52.052;8.354;2022-10-18T03:04:40;18.10;99.90
16955;DHT22;8594;52.052;8.354;2022-10-18T03:07:07;18.10;99.90
16955;DHT22;8594;52.052;8.354;2022-10-18T03:09:34;18.20;99.90
16955;DHT22;8594;52.052;8.354;2022-10-18T03:12:01;18.20;99.90
16955;DHT22;8594;52.052;8.354;2022-10-18T03:14:28;18.20;99.90
16955;DHT22;8594;52.052;8.354;2022-10-18T03:16:55;18.10;99.90
16955;DHT22;8594;52.052;8.354;2022-10-18T03:19:22;18.10;99.90
16955;DHT22;8594;52.052;8.354;2022-10-18T03:21:50;18.10;99.90
16955;DHT22;8594;52.052;8.354;2022-10-18T03:24:17;18.10;99.90
16955;DHT22;8594;52.052;8.354;2022-10-18T03:26:44;18.20;99.90
16955;DHT22;8594;52.052;8.354;2022-10-18T03:29:11;18.30;99.90
16955;DHT22;8594;52.052;8.354;2022-10-18T03:31:38;18.10;99.90
16955;DHT22;8594;52.052;8.354;2022-10-18T03:34:05;18.00;99.90
16955;DHT22;8594;52.052;8.354;2022-10-18T03:36:32;17.90;99.90
16955;DHT22;8594;52.052;8.354;2022-10-18T03:39:00;17.90;99.90
16955;DHT22;8594;52.052;8.354;2022-10-18T03:41:27;17.90;99.90
16955;DHT22;8594;52.052;8.354;2022-10-18T03:43:54;17.80;99.90
16955;DHT22;8594;52.052;8.354;2022-10-18T03:46:21;17.80;99.90
16955;DHT22;8594;52.052;8.354;2022-10-18T03:48:48;17.90;99.90
16955;DHT22;8594;52.052;8.354;2022-10-18T03:51:15;17.90;99.90
16955;DHT22;8594;52.052;8.354;2022-10-18T03:53:42;17.90;99.90
16955;DHT22;8594;52.052;8.354;2022-10-18T03:56:10;17.90;99.90
16955;DHT22;8594;52.052;8.354;2022-10-18T03:58:37;18.00;99.90
16955;DHT22;8594;52.052;8.354;2022-10-18T04:01:04;18.00;99.90
16955;DHT22;8594;52.052;8.354;2022-10-18T04:03:31;18.00;99.90
16955;DHT22;8594;52.052;8.354;2022-10-18T04:05:58;17.90;99.90
16955;DHT22;8594;52.052;8.354;2022-10-18T04:08:27;17.90;99.90
16955;DHT22;8594;52.052;8.354;2022-10-18T04:10:55;17.80;99.90
16955;DHT22;8594;52.052;8.354;2022-10-18T04:13:24;17.70;99.90
16955;DHT22;8594;52.052;8.354;2022-10-18T04:15:51;17.90;99.90
16955;DHT22;8594;52.052;8.354;2022-10-18T04:18:17;18.00;99.90
16955;DHT22;8594;52.052;8.354;2022-10-18T04:20:44;17.80;99.90
16955;DHT22;8594;52.052;8.354;2022-10-18T04:23:11;17.80;99.90
16955;DHT22;8594;52.052;8.354;2022-10-18T04:25:38;17.80;99.90
16955;DHT22;8594;52.052;8.354;2022-10-18T04:28:05;17.80;99.90
16955;DHT22;8594;52.052;8.354;2022-10-18T04:30:33;17.80;99.90
16955;DHT22;8594;52.052;8.354;2022-10-18T04:33:00;17.70;99.90
16955;DHT22;8594;52.052;8.354;2022-10-18T04:35:27;17.60;99.90
16955;DHT22;8594;52.052;8.354;2022-10-18T04:37:54;17.80;99.90
16955;DHT22;8594;52.052;8.354;2022-10-18T04:40:22;17.70;99.90
16955;DHT22;8594;52.052;8.354;2022-10-18T04:42:49;17.60;99.90
16955;DHT22;8594;52.052;8.354;2022-10-18T04:45:16;17.70;99.90
16955;DHT22;8594;52.052;8.354;2022-10-18T04:47:44;17.70;99.90
16955;DHT22;8594;52.052;8.354;2022-10-18T04:50:11;17.80;99.90
16955;DHT22;8594;52.052;8.354;2022-10-18T04:52:38;17.80;99.90
16955;DHT22;8594;52.052;8.354;2022-10-18T04:55:05;17.70;99.90
16955;DHT22;8594;52.052;8.354;2022-10-18T04:57:33;17.60;99.90
16955;DHT22;8594;52.052;8.354;2022-10-18T04:59:59;17.70;99.90
16955;DHT22;8594;52.052;8.354;2022-10-18T05:02:26;17.70;99.90
16955;DHT22;8594;52.052;8.354;2022-10-18T05:04:55;17.70;99.90
16955;DHT22;8594;52.052;8.354;2022-10-18T05:07:21;17.70;99.90
16955;DHT22;8594;52.052;8.354;2022-10-18T05:09:48;17.90;99.90
16955;DHT22;8594;52.052;8.354;2022-10-18T05:12:15;17.80;99.90
16955;DHT22;8594;52.052;8.354;2022-10-18T05:14:42;17.70;99.90
16955;DHT22;8594;52.052;8.354;2022-10-18T05:17:09;17.70;99.90
16955;DHT22;8594;52.052;8.354;2022-10-18T05:19:36;17.60;99.90
16955;DHT22;8594;52.052;8.354;2022-10-18T05:22:04;17.60;99.90
16955;DHT22;8594;52.052;8.354;2022-10-18T05:24:32;17.60;99.90
16955;DHT22;8594;52.052;8.354;2022-10-18T05:26:59;17.70;99.90
16955;DHT22;8594;52.052;8.354;2022-10-18T05:29:26;17.80;99.90
16955;DHT22;8594;52.052;8.354;2022-10-18T05:31:53;17.80;99.90
16955;DHT22;8594;52.052;8.354;2022-10-18T05:34:20;17.70;99.90
16955;DHT22;8594;52.052;8.354;2022-10-18T05:36:49;17.70;99.90
16955;DHT22;8594;52.052;8.354;2022-10-18T05:39:17;17.60;99.90
16955;DHT22;8594;52.052;8.354;2022-10-18T05:41:44;17.70;99.90
16955;DHT22;8594;52.052;8.354;2022-10-18T05:44:11;17.80;99.90
16955;DHT22;8594;52.052;8.354;2022-10-18T05:46:38;17.90;99.90
16955;DHT22;8594;52.052;8.354;2022-10-18T05:49:05;17.80;99.90
16955;DHT22;8594;52.052;8.354;2022-10-18T05:51:32;17.70;99.90
16955;DHT22;8594;52.052;8.354;2022-10-18T05:53:59;17.60;99.90
16955;DHT22;8594;52.052;8.354;2022-10-18T05:56:27;17.70;99.90
16955;DHT22;8594;52.052;8.354;2022-10-18T05:58:54;17.60;99.90
16955;DHT22;8594;52.052;8.354;2022-10-18T06:01:21;17.60;99.90
16955;DHT22;8594;52.052;8.354;2022-10-18T06:03:49;17.60;99.90
16955;DHT22;8594;52.052;8.354;2022-10-18T06:06:16;17.60;99.90
16955;DHT22;8594;52.052;8.354;2022-10-18T06:08:43;17.60;99.90
16955;DHT22;8594;52.052;8.354;2022-10-18T06:11:12;17.60;99.90
16955;DHT22;8594;52.052;8.354;2022-10-18T06:13:42;17.70;99.90
16955;DHT22;8594;52.052;8.354;2022-10-18T06:16:11;17.60;99.90
16955;DHT22;8594;52.052;8.354;2022-10-18T06:18:39;17.60;99.90
16955;DHT22;8594;52.052;8.354;2022-10-18T06:21:07;17.50;99.90
16955;DHT22;8594;52.052;8.354;2022-10-18T06:23:34;17.60;99.90
16955;DHT22;8594;52.052;8.354;2022-10-18T06:26:04;17.60;99.90
16955;DHT22;8594;52.052;8.354;2022-10-18T06:28:33;17.60;99.90
16955;DHT22;8594;52.052;8.354;2022-10-18T06:31:03;17.60;99.90
16955;DHT22;8594;52.052;8.354;2022-10-18T06:33:32;17.60;99.90
16955;DHT22;8594;52.052;8.354;2022-10-18T06:36:01;17.60;99.90
16955;DHT22;8594;52.052;8.354;2022-10-18T06:38:30;17.60;99.90
16955;DHT22;8594;52.052;8.354;2022-10-18T06:40:58;17.60;99.90
16955;DHT22;8594;52.052;8.354;2022-10-18T06:43:26;17.60;99.90
16955;DHT22;8594;52.052;8.354;2022-10-18T06:45:53;17.60;99.90
16955;DHT22;8594;52.052;8.354;2022-10-18T06:48:22;17.70;99.90
16955;DHT22;8594;52.052;8.354;2022-10-18T06:50:51;17.60;99.90
16955;DHT22;8594;52.052;8.354;2022-10-18T06:53:19;17.60;99.90
16955;DHT22;8594;52.052;8.354;2022-10-18T06:55:46;17.60;99.90
16955;DHT22;8594;52.052;8.354;2022-10-18T06:58:13;17.70;99.90
16955;DHT22;8594;52.052;8.354;2022-10-18T07:00:40;17.60;99.90
16955;DHT22;8594;52.052;8.354;2022-10-18T07:03:07;17.70;99.90
16955;DHT22;8594;52.052;8.354;2022-10-18T07:05:35;17.70;99.90
16955;DHT22;8594;52.052;8.354;2022-10-18T07:08:02;17.70;99.90
16955;DHT22;8594;52.052;8.354;2022-10-18T07:10:30;17.70;99.90
16955;DHT22;8594;52.052;8.354;2022-10-18T07:12:56;17.70;99.90
16955;DHT22;8594;52.052;8.354;2022-10-18T07:15:23;17.70;99.90
16955;DHT22;8594;52.052;8.354;2022-10-18T07:17:50;17.80;99.90
16955;DHT22;8594;52.052;8.354;2022-10-18T07:20:17;17.80;99.90
16955;DHT22;8594;52.052;8.354;2022-10-18T07:22:46;17.90;99.90
16955;DHT22;8594;52.052;8.354;2022-10-18T07:25:12;18.10;99.90
16955;DHT22;8594;52.052;8.354;2022-10-18T07:27:41;17.90;99.90
16955;DHT22;8594;52.052;8.354;2022-10-18T07:30:09;17.90;99.90
16955;DHT22;8594;52.052;8.354;2022-10-18T07:32:36;18.00;99.90
16955;DHT22;8594;52.052;8.354;2022-10-18T07:35:04;18.00;99.90
16955;DHT22;8594;52.052;8.354;2022-10-18T07:37:31;18.00;99.90
16955;DHT22;8594;52.052;8.354;2022-10-18T07:39:59;17.80;99.90
16955;DHT22;8594;52.052;8.354;2022-10-18T07:42:26;17.80;99.90
16955;DHT22;8594;52.052;8.354;2022-10-18T07:44:53;17.70;99.90
16955;DHT22;8594;52.052;8.354;2022-10-18T07:47:20;17.80;99.90
16955;DHT22;8594;52.052;8.354;2022-10-18T07:49:47;17.80;99.90
16955;DHT22;8594;52.052;8.354;2022-10-18T07:52:14;17.80;99.90
16955;DHT22;8594;52.052;8.354;2022-10-18T07:54:41;17.70;99.90
16955;DHT22;8594;52.052;8.354;2022-10-18T07:57:09;17.70;99.90
16955;DHT22;8594;52.052;8.354;2022-10-18T07:59:36;17.80;99.90
16955;DHT22;8594;52.052;8.354;2022-10-18T08:02:03;17.80;99.90
16955;DHT22;8594;52.052;8.354;2022-10-18T08:04:30;17.70;99.90
16955;DHT22;8594;52.052;8.354;2022-10-18T08:06:57;17.70;99.90
16955;DHT22;8594;52.052;8.354;2022-10-18T08:09:24;17.80;99.90
16955;DHT22;8594;52.052;8.354;2022-10-18T08:11:51;17.80;99.90
16955;DHT22;8594;52.052;8.354;2022-10-18T08:14:19;17.70;99.90
16955;DHT22;8594;52.052;8.354;2022-10-18T08:16:46;17.70;99.90
16955;DHT22;8594;52.052;8.354;2022-10-18T08:19:13;17.60;99.90
16955;DHT22;8594;52.052;8.354;2022-10-18T08:21:40;17.70;99.90
16955;DHT22;8594;52.052;8.354;2022-10-18T08:24:06;17.80;99.90
16955;DHT22;8594;52.052;8.354;2022-10-18T08:26:33;17.90;99.90
16955;DHT22;8594;52.052;8.354;2022-10-18T08:29:00;18.00;99.90
16955;DHT22;8594;52.052;8.354;2022-10-18T08:31:28;18.00;99.90
16955;DHT22;8594;52.052;8.354;2022-10-18T08:33:56;18.00;99.90
16955;DHT22;8594;52.052;8.354;2022-10-18T08:36:23;17.90;99.90
16955;DHT22;8594;52.052;8.354;2022-10-18T08:38:50;17.80;99.90
16955;DHT22;8594;52.052;8.354;2022-10-18T08:41:33;17.90;99.90
16955;DHT22;8594;52.052;8.354;2022-10-18T08:44:14;18.00;99.90
16955;DHT22;8594;52.052;8.354;2022-10-18T08:46:48;18.00;99.90
16955;DHT22;8594;52.052;8.354;2022-10-18T08:49:21;18.10;99.90
16955;DHT22;8594;52.052;8.354;2022-10-18T08:51:54;18.20;99.90
16955;DHT22;8594;52.052;8.354;2022-10-18T08:54:29;18.40;99.90
16955;DHT22;8594;52.052;8.354;2022-10-18T08:57:02;18.50;99.90
16955;DHT22;8594;52.052;8.354;2022-10-18T08:59:37;18.40;99.90
16955;DHT22;8594;52.052;8.354;2022-10-18T09:02:15;18.40;99.90
16955;DHT22;8594;52.052;8.354;2022-10-18T09:05:01;18.50;99.90
16955;DHT22;8594;52.052;8.354;2022-10-18T09:07:45;18.60;99.90
16955;DHT22;8594;52.052;8.354;2022-10-18T09:10:29;18.60;99.90
16955;DHT22;8594;52.052;8.354;2022-10-18T09:13:37;18.40;99.90
16955;DHT22;8594;52.052;8.354;2022-10-18T09:16:27;18.80;99.90
16955;DHT22;8594;52.052;8.354;2022-10-18T09:19:10;18.80;99.90
16955;DHT22;8594;52.052;8.354;2022-10-18T09:21:50;19.10;99.90
16955;DHT22;8594;52.052;8.354;2022-10-18T09:24:25;19.10;99.90
16955;DHT22;8594;52.052;8.354;2022-10-18T09:26:59;19.10;99.90
16955;DHT22;8594;52.052;8.354;2022-10-18T09:29:41;19.30;99.90
16955;DHT22;8594;52.052;8.354;2022-10-18T09:32:26;19.20;99.90
16955;DHT22;8594;52.052;8.354;2022-10-18T09:35:14;19.30;99.90
16955;DHT22;8594;52.052;8.354;2022-10-18T09:37:44;19.30;99.90
16955;DHT22;8594;52.052;8.354;2022-10-18T09:40:15;19.20;99.90
16955;DHT22;8594;52.052;8.354;2022-10-18T09:42:52;19.10;99.90
16955;DHT22;8594;52.052;8.354;2022-10-18T09:45:26;19.10;99.90
16955;DHT22;8594;52.052;8.354;2022-10-18T09:48:02;19.20;99.90
16955;DHT22;8594;52.052;8.354;2022-10-18T09:50:38;19.10;99.90
16955;DHT22;8594;52.052;8.354;2022-10-18T09:53:14;19.10;99.90
16955;DHT22;8594;52.052;8.354;2022-10-18T09:55:55;19.20;99.90
16955;DHT22;8594;52.052;8.354;2022-10-18T09:58:37;19.10;99.90
16955;DHT22;8594;52.052;8.354;2022-10-18T10:01:10;19.00;99.90
16955;DHT22;8594;52.052;8.354;2022-10-18T10:03:40;19.10;99.90
16955;DHT22;8594;52.052;8.354;2022-10-18T10:06:19;19.10;99.90
16955;DHT22;8594;52.052;8.354;2022-10-18T10:08:54;19.10;99.90
16955;DHT22;8594;52.052;8.354;2022-10-18T10:11:29;19.00;99.90
16955;DHT22;8594;52.052;8.354;2022-10-18T10:14:07;19.10;99.90
16955;DHT22;8594;52.052;8.354;2022-10-18T10:16:43;19.10;99.90
16955;DHT22;8594;52.052;8.354;2022-10-18T10:19:16;19.20;99.90
16955;DHT22;8594;52.052;8.354;2022-10-18T10:21:47;19.20;99.90
16955;DHT22;8594;52.052;8.354;2022-10-18T10:24:23;19.30;99.90
16955;DHT22;8594;52.052;8.354;2022-10-18T10:27:04;19.40;99.90
16955;DHT22;8594;52.052;8.354;2022-10-18T10:29:51;19.50;99.90
16955;DHT22;8594;52.052;8.354;2022-10-18T10:32:23;19.50;99.90
16955;DHT22;8594;52.052;8.354;2022-10-18T10:34:52;19.60;99.90
16955;DHT22;8594;52.052;8.354;2022-10-18T10:37:27;19.70;99.90
16955;DHT22;8594;52.052;8.354;2022-10-18T10:40:06;19.80;99.90
16955;DHT22;8594;52.052;8.354;2022-10-18T10:42:56;19.60;99.90
16955;DHT22;8594;52.052;8.354;2022-10-18T10:45:33;19.60;99.90
16955;DHT22;8594;52.052;8.354;2022-10-18T10:48:07;19.50;99.90
16955;DHT22;8594;52.052;8.354;2022-10-18T10:50:50;19.40;99.90
16955;DHT22;8594;52.052;8.354;2022-10-18T10:53:28;19.50;99.90
16955;DHT22;8594;52.052;8.354;2022-10-18T10:55:58;19.70;99.90
16955;DHT22;8594;52.052;8.354;2022-10-18T10:58:28;20.10;99.90
16955;DHT22;8594;52.052;8.354;2022-10-18T11:01:20;20.30;99.90
16955;DHT22;8594;52.052;8.354;2022-10-18T11:03:57;20.60;99.90
16955;DHT22;8594;52.052;8.354;2022-10-18T11:06:39;20.70;99.90
16955;DHT22;8594;52.052;8.354;2022-10-18T11:09:22;20.50;99.90
16955;DHT22;8594;52.052;8.354;2022-10-18T11:12:15;20.30;99.90
16955;DHT22;8594;52.052;8.354;2022-10-18T11:14:53;20.10;99.90
16955;DHT22;8594;52.052;8.354;2022-10-18T11:17:31;20.20;99.90
16955;DHT22;8594;52.052;8.354;2022-10-18T11:20:12;20.60;99.90
16955;DHT22;8594;52.052;8.354;2022-10-18T11:22:58;21.00;99.90
16955;DHT22;8594;52.052;8.354;2022-10-18T11:25:58;21.20;99.90
16955;DHT22;8594;52.052;8.354;2022-10-18T11:28:44;21.50;99.90
16955;DHT22;8594;52.052;8.354;2022-10-18T11:31:28;21.40;99.90
16955;DHT22;8594;52.052;8.354;2022-10-18T11:34:12;21.30;99.90
16955;DHT22;8594;52.052;8.354;2022-10-18T11:36:54;21.80;99.90
16955;DHT22;8594;52.052;8.354;2022-10-18T11:39:35;21.60;99.90
16955;DHT22;8594;52.052;8.354;2022-10-18T11:42:18;21.70;99.90
16955;DHT22;8594;52.052;8.354;2022-10-18T11:44:56;21.90;99.90
16955;DHT22;8594;52.052;8.354;2022-10-18T11:47:36;22.10;99.90
16955;DHT22;8594;52.052;8.354;2022-10-18T11:50:17;22.20;99.90
16955;DHT22;8594;52.052;8.354;2022-10-18T11:52:57;22.00;99.90
16955;DHT22;8594;52.052;8.354;2022-10-18T11:55:41;22.30;99.90
16955;DHT22;8594;52.052;8.354;2022-10-18T11:58:41;22.20;99.90
16955;DHT22;8594;52.052;8.354;2022-10-18T12:01:24;22.70;99.90
16955;DHT22;8594;52.052;8.354;2022-10-18T12:04:01;22.90;99.90
16955;DHT22;8594;52.052;8.354;2022-10-18T12:06:36;23.20;99.90
16955;DHT22;8594;52.052;8.354;2022-10-18T12:09:14;22.90;99.90
16955;DHT22;8594;52.052;8.354;2022-10-18T12:11:52;23.10;99.90
16955;DHT22;8594;52.052;8.354;2022-10-18T12:14:28;23.10;99.90
16955;DHT22;8594;52.052;8.354;2022-10-18T12:17:03;23.20;99.90
16955;DHT22;8594;52.052;8.354;2022-10-18T12:19:33;23.30;99.90
16955;DHT22;8594;52.052;8.354;2022-10-18T12:22:13;23.00;99.90
16955;DHT22;8594;52.052;8.354;2022-10-18T12:24:44;22.80;99.90
16955;DHT22;8594;52.052;8.354;2022-10-18T12:27:12;22.80;99.90
16955;DHT22;8594;52.052;8.354;2022-10-18T12:29:46;22.90;99.90
16955;DHT22;8594;52.052;8.354;2022-10-18T12:32:19;22.50;99.90
16955;DHT22;8594;52.052;8.354;2022-10-18T12:34:53;22.50;99.90
16955;DHT22;8594;52.052;8.354;2022-10-18T12:40:22;22.20;99.90
16955;DHT22;8594;52.052;8.354;2022-10-18T12:42:55;22.30;99.90
16955;DHT22;8594;52.052;8.354;2022-10-18T12:45:27;22.40;99.90
16955;DHT22;8594;52.052;8.354;2022-10-18T12:47:58;22.10;99.90
16955;DHT22;8594;52.052;8.354;2022-10-18T12:50:30;22.30;99.90
16955;DHT22;8594;52.052;8.354;2022-10-18T12:53:05;22.10;99.90
16955;DHT22;8594;52.052;8.354;2022-10-18T12:55:42;21.90;99.90
16955;DHT22;8594;52.052;8.354;2022-10-18T12:58:26;21.90;99.90
16955;DHT22;8594;52.052;8.354;2022-10-18T13:01:00;21.90;99.90
16955;DHT22;8594;52.052;8.354;2022-10-18T13:03:40;21.90;99.90
16955;DHT22;8594;52.052;8.354;2022-10-18T13:16:35;21.90;99.90
16955;DHT22;8594;52.052;8.354;2022-10-18T13:19:18;22.00;99.90
16955;DHT22;8594;52.052;8.354;2022-10-18T13:21:54;21.90;99.90
16955;DHT22;8594;52.052;8.354;2022-10-18T13:24:38;21.50;99.90
16955;DHT22;8594;52.052;8.354;2022-10-18T13:27:26;21.40;99.90
16955;DHT22;8594;52.052;8.354;2022-10-18T13:33:25;21.70;99.90
16955;DHT22;8594;52.052;8.354;2022-10-18T13:35:58;21.80;99.90
16955;DHT22;8594;52.052;8.354;2022-10-18T13:38:44;21.40;99.90
16955;DHT22;8594;52.052;8.354;2022-10-18T13:41:16;21.50;99.90
16955;DHT22;8594;52.052;8.354;2022-10-18T13:43:56;21.60;99.90
16955;DHT22;8594;52.052;8.354;2022-10-18T13:49:57;21.40;99.90
16955;DHT22;8594;52.052;8.354;2022-10-18T13:52:51;21.00;99.90
16955;DHT22;8594;52.052;8.354;2022-10-18T13:55:43;21.20;99.90
16955;DHT22;8594;52.052;8.354;2022-10-18T13:58:28;21.10;99.90
16955;DHT22;8594;52.052;8.354;2022-10-18T14:01:11;20.70;99.90
16955;DHT22;8594;52.052;8.354;2022-10-18T14:04:26;20.90;99.90
16955;DHT22;8594;52.052;8.354;2022-10-18T14:07:17;20.90;99.90
16955;DHT22;8594;52.052;8.354;2022-10-18T14:09:47;20.70;99.90
16955;DHT22;8594;52.052;8.354;2022-10-18T14:12:24;20.70;99.90
16955;DHT22;8594;52.052;8.354;2022-10-18T14:15:01;20.60;99.90
16955;DHT22;8594;52.052;8.354;2022-10-18T14:17:35;20.60;99.90
16955;DHT22;8594;52.052;8.354;2022-10-18T14:20:16;20.60;99.90
16955;DHT22;8594;52.052;8.354;2022-10-18T14:22:52;20.30;99.90
16955;DHT22;8594;52.052;8.354;2022-10-18T14:25:28;20.20;99.90
16955;DHT22;8594;52.052;8.354;2022-10-18T14:28:11;20.20;99.90
16955;DHT22;8594;52.052;8.354;2022-10-18T14:31:10;20.20;99.90
16955;DHT22;8594;52.052;8.354;2022-10-18T14:33:42;20.20;99.90
16955;DHT22;8594;52.052;8.354;2022-10-18T14:36:24;20.30;99.90
16955;DHT22;8594;52.052;8.354;2022-10-18T14:38:54;20.00;99.90
16955;DHT22;8594;52.052;8.354;2022-10-18T14:41:26;20.10;99.90
16955;DHT22;8594;52.052;8.354;2022-10-18T14:44:16;19.90;99.90
16955;DHT22;8594;52.052;8.354;2022-10-18T14:46:51;20.00;99.90
16955;DHT22;8594;52.052;8.354;2022-10-18T14:49:24;19.90;99.90
16955;DHT22;8594;52.052;8.354;2022-10-18T14:51:54;19.80;99.90
16955;DHT22;8594;52.052;8.354;2022-10-18T14:54:24;19.90;99.90
16955;DHT22;8594;52.052;8.354;2022-10-18T14:56:55;19.80;99.90
16955;DHT22;8594;52.052;8.354;2022-10-18T14:59:24;20.00;99.90
16955;DHT22;8594;52.052;8.354;2022-10-18T15:01:55;19.70;99.90
16955;DHT22;8594;52.052;8.354;2022-10-18T15:04:25;20.00;99.90
16955;DHT22;8594;52.052;8.354;2022-10-18T15:06:59;20.00;99.90
16955;DHT22;8594;52.052;8.354;2022-10-18T15:09:29;19.80;99.90
16955;DHT22;8594;52.052;8.354;2022-10-18T15:11:59;19.80;99.90
16955;DHT22;8594;52.052;8.354;2022-10-18T15:14:27;19.60;99.90
16955;DHT22;8594;52.052;8.354;2022-10-18T15:17:00;19.60;99.90
16955;DHT22;8594;52.052;8.354;2022-10-18T15:19:37;19.60;99.90
16955;DHT22;8594;52.052;8.354;2022-10-18T15:22:08;19.70;99.90
16955;DHT22;8594;52.052;8.354;2022-10-18T15:24:37;19.70;99.90
16955;DHT22;8594;52.052;8.354;2022-10-18T15:27:12;19.60;99.90
16955;DHT22;8594;52.052;8.354;2022-10-18T15:29:46;19.50;99.90
16955;DHT22;8594;52.052;8.354;2022-10-18T15:32:17;19.50;99.90
16955;DHT22;8594;52.052;8.354;2022-10-18T15:34:47;19.30;99.90
16955;DHT22;8594;52.052;8.354;2022-10-18T15:37:29;19.30;99.90
16955;DHT22;8594;52.052;8.354;2022-10-18T15:40:33;19.20;99.90
16955;DHT22;8594;52.052;8.354;2022-10-18T15:43:04;19.20;99.90
16955;DHT22;8594;52.052;8.354;2022-10-18T15:45:54;19.00;99.90
16955;DHT22;8594;52.052;8.354;2022-10-18T15:48:24;19.00;99.90
16955;DHT22;8594;52.052;8.354;2022-10-18T15:50:54;19.00;99.90
16955;DHT22;8594;52.052;8.354;2022-10-18T15:53:39;18.90;99.90
16955;DHT22;8594;52.052;8.354;2022-10-18T15:56:12;18.90;99.90
16955;DHT22;8594;52.052;8.354;2022-10-18T15:58:54;18.90;99.90
16955;DHT22;8594;52.052;8.354;2022-10-18T16:01:28;18.90;99.90
16955;DHT22;8594;52.052;8.354;2022-10-18T16:03:59;18.80;99.90
16955;DHT22;8594;52.052;8.354;2022-10-18T16:06:30;18.70;99.90
16955;DHT22;8594;52.052;8.354;2022-10-18T16:09:01;18.80;99.90
16955;DHT22;8594;52.052;8.354;2022-10-18T16:11:28;18.80;99.90
16955;DHT22;8594;52.052;8.354;2022-10-18T16:13:55;18.70;99.90
16955;DHT22;8594;52.052;8.354;2022-10-18T16:16:23;18.70;99.90
16955;DHT22;8594;52.052;8.354;2022-10-18T16:18:52;18.60;99.90
16955;DHT22;8594;52.052;8.354;2022-10-18T16:21:22;18.50;99.90
16955;DHT22;8594;52.052;8.354;2022-10-18T16:23:51;18.40;99.90
16955;DHT22;8594;52.052;8.354;2022-10-18T16:26:21;18.20;99.90
16955;DHT22;8594;52.052;8.354;2022-10-18T16:28:49;18.00;99.90
16955;DHT22;8594;52.052;8.354;2022-10-18T16:31:17;17.80;99.90
16955;DHT22;8594;52.052;8.354;2022-10-18T16:33:46;17.80;99.90
16955;DHT22;8594;52.052;8.354;2022-10-18T16:36:15;17.80;99.90
16955;DHT22;8594;52.052;8.354;2022-10-18T16:38:43;17.80;99.90
16955;DHT22;8594;52.052;8.354;2022-10-18T16:41:11;17.80;99.90
16955;DHT22;8594;52.052;8.354;2022-10-18T16:43:42;17.80;99.90
16955;DHT22;8594;52.052;8.354;2022-10-18T16:46:14;17.80;99.90